Time;durP1;ratioP1;P1;durP2;ratioP2;P2;SDS_P1;SDS_P2;PMS_P1;PMS_P2;Temp;Humidity;BMP_temperature;BMP_pressure;BME280_temperature;BME280_humidity;BME280_pressure;Samples;Min_cycle;Max_cycle;Signal;HPM_P1;HPM_P2
2022/05/28 00:01:04;;;;;;;7.93;2.38;;;;;;;17.69;42.38;100843.69;5066538;28;20398;-73
2022/05/28 00:03:30;;;;;;;8.70;2.00;;;;;;;17.68;42.26;100839.34;5076882;28;20421;-74
2022/05/28 00:05:56;;;;;;;6.20;1.90;;;;;;;17.66;42.54;100846.19;5084220;28;20391;-74
2022/05/28 00:08:24;;;;;;;6.75;1.77;;;;;;;17.65;43.15;100837.13;5079973;28;20421;-73
2022/05/28 00:10:49;;;;;;;7.28;1.95;;;;;;;17.68;43.46;100835.78;5074446;28;20419;-73
2022/05/28 00:13:15;;;;;;;3.15;1.48;;;;;;;17.69;43.23;100840.94;5080911;28;20754;-73
2022/05/28 00:15:41;;;;;;;5.50;2.03;;;;;;;17.69;42.75;100834.66;5075311;28;20451;-73
2022/05/28 00:18:08;;;;;;;9.27;2.25;;;;;;;17.66;43.00;100840.69;5053835;28;20411;-74
2022/05/28 00:20:33;;;;;;;8.57;2.10;;;;;;;17.62;42.76;100837.69;5082138;28;20414;-73
2022/05/28 00:22:58;;;;;;;9.27;2.10;;;;;;;17.60;42.37;100838.00;5087210;28;20782;-73
2022/05/28 00:25:24;;;;;;;7.78;2.05;;;;;;;17.61;42.43;100834.16;5087374;28;20390;-73
2022/05/28 00:27:50;;;;;;;4.83;1.67;;;;;;;17.61;42.51;100836.91;5069788;28;20818;-73
2022/05/28 00:30:17;;;;;;;4.77;1.90;;;;;;;17.53;42.12;100844.84;5072431;28;20416;-74
2022/05/28 00:32:42;;;;;;;8.82;2.13;;;;;;;17.50;42.31;100835.28;5083191;28;20417;-73
2022/05/28 00:35:15;;;;;;;8.32;2.10;;;;;;;17.53;42.15;100831.97;5097435;28;20404;-73
2022/05/28 00:37:42;;;;;;;6.80;1.80;;;;;;;17.53;42.39;100845.66;5062878;28;20398;-73
2022/05/28 00:40:15;;;;;;;6.28;1.90;;;;;;;17.49;42.25;100844.59;5072949;28;20913;-73
2022/05/28 00:42:40;;;;;;;8.48;1.58;;;;;;;17.47;42.25;100840.50;5079501;28;20386;-73
2022/05/28 00:45:06;;;;;;;6.67;1.77;;;;;;;17.45;42.30;100843.50;5069206;28;20890;-73
2022/05/28 00:47:32;;;;;;;6.32;2.00;;;;;;;17.49;42.50;100846.50;5077291;28;20391;-73
2022/05/28 00:49:58;;;;;;;6.43;1.63;;;;;;;17.46;42.49;100842.41;5071234;28;20404;-73
2022/05/28 00:52:25;;;;;;;7.97;2.50;;;;;;;17.42;42.44;100837.78;5085852;28;20470;-73
2022/05/28 00:54:52;;;;;;;7.20;2.00;;;;;;;17.37;43.02;100846.84;5094289;28;21008;-73
2022/05/28 00:57:20;;;;;;;7.88;2.17;;;;;;;17.33;42.95;100847.66;5074001;28;20418;-73
2022/05/28 00:59:46;;;;;;;9.32;2.17;;;;;;;17.30;42.72;100840.84;5085156;28;20393;-74
2022/05/28 01:02:38;;;;;;;4.93;1.80;;;;;;;17.29;42.11;100846.63;5059379;28;20392;-73
2022/05/28 01:05:11;;;;;;;7.53;1.60;;;;;;;17.23;42.87;100854.00;5047457;28;20493;-74
2022/05/28 01:07:56;;;;;;;7.68;1.75;;;;;;;17.21;42.68;100855.38;5084448;28;20408;-73
2022/05/28 01:10:48;;;;;;;7.60;1.77;;;;;;;17.20;42.34;100845.53;5074726;28;20394;-73
2022/05/28 01:13:28;;;;;;;7.18;1.65;;;;;;;17.13;42.90;100838.44;5082383;28;20536;-73
2022/05/28 01:15:59;;;;;;;4.53;1.77;;;;;;;17.03;43.18;100845.84;5095274;28;20490;-73
2022/05/28 01:18:41;;;;;;;11.20;1.77;;;;;;;17.10;43.41;100843.66;5076147;28;20407;-74
2022/05/28 01:21:15;;;;;;;5.00;1.90;;;;;;;17.12;43.31;100847.72;5085933;28;20555;-73
2022/05/28 01:23:46;;;;;;;4.32;2.00;;;;;;;17.08;43.31;100848.59;5080377;28;20391;-73
2022/05/28 01:26:32;;;;;;;6.35;2.10;;;;;;;16.96;43.18;100850.78;5073452;28;20958;-74
2022/05/28 01:29:04;;;;;;;8.00;1.88;;;;;;;16.95;43.09;100846.44;5080132;28;20416;-74
2022/05/28 01:31:31;;;;;;;6.77;1.83;;;;;;;16.93;43.24;100848.59;5086761;28;20900;-73
2022/05/28 01:34:00;;;;;;;7.97;2.03;;;;;;;16.89;43.00;100845.59;5094528;28;20386;-74
2022/05/28 01:36:26;;;;;;;4.82;1.67;;;;;;;16.92;43.25;100857.94;5054771;28;20429;-73
2022/05/28 01:38:54;;;;;;;5.45;1.50;;;;;;;16.90;43.05;100851.91;5073906;28;20791;-73
2022/05/28 01:41:21;;;;;;;12.57;1.90;;;;;;;16.86;42.70;100862.59;5086855;28;20504;-74
2022/05/28 01:43:48;;;;;;;5.57;1.48;;;;;;;16.85;43.04;100858.22;5085554;28;20424;-73
2022/05/28 01:46:17;;;;;;;6.77;1.83;;;;;;;16.80;42.87;100860.97;5073295;28;20411;-73
2022/05/28 01:48:45;;;;;;;10.85;1.95;;;;;;;16.83;42.74;100852.19;5074983;28;20395;-73
2022/05/28 01:51:14;;;;;;;9.40;2.03;;;;;;;16.84;42.94;100863.97;5086180;28;20417;-73
2022/05/28 01:56:26;;;;;;;5.97;1.58;;;;;;;16.81;43.17;100861.78;5081600;28;20876;-73
2022/05/28 01:58:52;;;;;;;6.95;1.80;;;;;;;16.77;43.40;100858.78;5073794;28;20408;-73
2022/05/28 02:01:17;;;;;;;5.67;1.80;;;;;;;16.75;43.84;100852.78;5072827;28;20408;-73
2022/05/28 02:03:47;;;;;;;9.97;2.00;;;;;;;16.79;43.79;100861.25;5072921;28;20425;-74
2022/05/28 02:06:12;;;;;;;7.20;2.00;;;;;;;16.79;43.83;100858.50;5077675;28;20383;-73
2022/05/28 02:08:41;;;;;;;6.63;1.63;;;;;;;16.80;43.90;100858.22;5082217;28;20544;-73
2022/05/28 02:11:21;;;;;;;8.75;1.90;;;;;;;16.80;43.99;100862.88;5078903;28;20406;-73
2022/05/28 02:14:13;;;;;;;9.07;1.70;;;;;;;16.78;44.41;100852.22;5079079;28;20380;-73
2022/05/28 02:16:49;;;;;;;6.97;2.30;;;;;;;16.77;44.25;100845.09;5095581;28;20740;-73
2022/05/28 02:19:45;;;;;;;7.38;2.00;;;;;;;16.79;44.62;100842.09;5076772;28;20430;-73
2022/05/28 02:22:20;;;;;;;6.63;1.85;;;;;;;16.79;44.81;100848.41;5089261;28;20549;-74
2022/05/28 02:24:51;;;;;;;7.88;1.95;;;;;;;16.79;44.66;100842.09;5101368;28;20410;-73
2022/05/28 02:27:19;;;;;;;8.20;1.40;;;;;;;16.76;44.77;100848.13;5076242;28;20482;-74
2022/05/28 02:29:45;;;;;;;6.53;1.85;;;;;;;16.72;44.52;100845.13;5081355;28;20421;-73
2022/05/28 02:32:15;;;;;;;5.18;1.80;;;;;;;16.63;44.10;100846.75;5081036;28;20407;-74
2022/05/28 02:34:45;;;;;;;6.90;1.65;;;;;;;16.58;44.61;100841.28;5054809;28;20761;-73
2022/05/28 02:37:10;;;;;;;10.02;2.05;;;;;;;16.60;44.93;100834.44;5086826;28;20470;-73
2022/05/28 02:39:36;;;;;;;8.38;1.63;;;;;;;16.63;45.00;100837.75;5072893;28;20898;-74
2022/05/28 02:42:01;;;;;;;7.90;1.67;;;;;;;16.63;45.32;100835.00;5060645;28;20886;-74
2022/05/28 02:44:28;;;;;;;6.77;1.73;;;;;;;16.62;45.42;100836.09;5071792;28;20529;-73
2022/05/28 02:46:53;;;;;;;6.40;1.80;;;;;;;16.61;45.31;100840.75;5087696;28;20411;-74
2022/05/28 02:49:18;;;;;;;6.27;1.70;;;;;;;16.62;45.36;100842.38;5078846;28;20407;-73
2022/05/28 02:51:43;;;;;;;7.18;1.70;;;;;;;16.61;45.63;100840.75;5071197;28;20434;-73
2022/05/28 02:54:09;;;;;;;7.80;2.07;;;;;;;16.60;45.04;100841.81;5078895;28;20400;-73
2022/05/28 02:56:34;;;;;;;6.83;1.50;;;;;;;16.55;44.86;100845.41;5078679;28;20461;-73
2022/05/28 02:58:59;;;;;;;5.97;1.47;;;;;;;16.54;43.93;100838.25;5054518;28;20759;-74
2022/05/28 03:01:27;;;;;;;11.27;1.88;;;;;;;16.50;43.94;100839.06;5094906;28;20398;-73
2022/05/28 03:03:54;;;;;;;7.60;1.95;;;;;;;16.46;43.00;100838.81;5079149;28;20704;-73
2022/05/28 03:06:20;;;;;;;4.10;1.02;;;;;;;16.44;42.83;100838.25;5086568;28;20398;-73
2022/05/28 03:08:46;;;;;;;3.63;0.90;;;;;;;16.41;41.94;100841.53;5055861;28;20422;-74
2022/05/28 03:11:11;;;;;;;4.65;1.08;;;;;;;16.36;42.32;100840.72;5071426;28;20426;-73
2022/05/28 03:13:36;;;;;;;5.87;1.70;;;;;;;16.38;41.99;100847.56;5083706;28;20884;-73
2022/05/28 03:16:03;;;;;;;3.97;1.33;;;;;;;16.38;41.47;100850.31;5058422;28;20755;-73
2022/05/28 03:18:28;;;;;;;6.85;1.15;;;;;;;16.35;41.43;100850.84;5079244;28;20415;-73
2022/05/28 03:20:53;;;;;;;3.33;1.17;;;;;;;16.35;41.58;100850.03;5071929;28;20379;-73
2022/05/28 03:23:18;;;;;;;1.87;0.80;;;;;;;16.30;41.71;100850.03;5070892;28;20877;-73
2022/05/28 03:25:44;;;;;;;4.07;1.30;;;;;;;16.27;42.14;100845.91;5086382;28;20381;-73
2022/05/28 03:28:09;;;;;;;3.20;1.20;;;;;;;16.27;42.01;100843.16;5074360;28;20431;-73
2022/05/28 03:30:35;;;;;;;5.90;1.47;;;;;;;16.24;41.90;100849.19;5085669;28;20486;-73
2022/05/28 03:33:00;;;;;;;4.25;1.10;;;;;;;16.19;42.22;100849.19;5070885;28;20419;-73
2022/05/28 03:35:25;;;;;;;7.03;1.53;;;;;;;16.17;42.67;100856.84;5071107;28;20469;-73
2022/05/28 03:37:50;;;;;;;4.17;1.03;;;;;;;16.18;42.54;100847.56;5082393;28;20870;-73
2022/05/28 03:40:16;;;;;;;3.72;1.20;;;;;;;16.18;42.69;100858.50;5076434;28;20398;-73
2022/05/28 03:42:41;;;;;;;2.90;1.20;;;;;;;16.15;42.67;100863.69;5083224;28;20410;-73
2022/05/28 03:45:07;;;;;;;3.47;1.10;;;;;;;16.11;42.91;100860.66;5078517;28;20403;-73
2022/05/28 03:47:33;;;;;;;4.70;1.35;;;;;;;16.08;42.58;100862.03;5072411;28;20494;-73
2022/05/28 03:49:58;;;;;;;4.97;1.63;;;;;;;16.03;43.02;100863.94;5074577;28;20398;-74
2022/05/28 03:52:23;;;;;;;6.47;1.40;;;;;;;16.05;43.22;100859.03;5083740;28;20422;-73
2022/05/28 03:54:49;;;;;;;2.30;0.90;;;;;;;16.05;43.12;100859.84;5079288;28;20803;-73
2022/05/28 03:57:22;;;;;;;5.60;1.30;;;;;;;16.03;42.74;100858.47;5070107;28;20403;-73
2022/05/28 03:59:48;;;;;;;2.70;1.10;;;;;;;15.98;42.61;100867.47;5087753;28;20878;-73
2022/05/28 04:02:13;;;;;;;2.88;1.05;;;;;;;15.96;43.15;100861.47;5088604;28;20418;-73
2022/05/28 04:04:38;;;;;;;4.37;1.13;;;;;;;15.94;43.27;100869.09;5060608;28;20445;-73
2022/05/28 04:07:04;;;;;;;3.70;1.43;;;;;;;15.92;43.01;100874.03;5094062;28;20738;-73
2022/05/28 04:09:29;;;;;;;5.07;1.00;;;;;;;15.92;43.33;100867.75;5074055;28;20481;-73
2022/05/28 04:11:55;;;;;;;7.23;1.37;;;;;;;15.91;43.18;100872.38;5065242;28;20451;-73
2022/05/28 04:14:20;;;;;;;2.58;1.20;;;;;;;15.86;43.38;100877.84;5081143;28;20805;-73
2022/05/28 04:16:45;;;;;;;2.23;1.00;;;;;;;15.87;43.58;100873.22;5084796;28;20429;-73
2022/05/28 04:19:11;;;;;;;3.17;0.90;;;;;;;15.90;43.26;100873.50;5089116;28;20396;-73
2022/05/28 04:21:37;;;;;;;5.43;1.20;;;;;;;15.84;42.96;100876.50;5076075;28;20393;-73
2022/05/28 04:24:03;;;;;;;2.33;1.00;;;;;;;15.77;43.54;100874.00;5089221;28;20403;-73
2022/05/28 04:26:29;;;;;;;4.20;1.30;;;;;;;15.70;43.73;100869.88;5059786;28;20400;-73
2022/05/28 04:28:54;;;;;;;3.72;1.00;;;;;;;15.67;43.38;100887.63;5053861;28;20396;-73
2022/05/28 04:31:20;;;;;;;8.23;1.30;;;;;;;15.65;43.60;100883.50;5081371;28;20510;-73
2022/05/28 04:33:45;;;;;;;4.68;1.00;;;;;;;15.65;43.61;100888.97;5087227;28;20434;-74
2022/05/28 04:36:10;;;;;;;3.57;1.17;;;;;;;15.60;43.75;100895.25;5073174;28;20502;-73
2022/05/28 04:38:35;;;;;;;5.37;1.27;;;;;;;15.51;44.14;100885.94;5061530;28;20902;-73
2022/05/28 04:41:01;;;;;;;3.70;1.00;;;;;;;15.51;44.61;100894.13;5058571;28;20442;-73
2022/05/28 04:43:26;;;;;;;4.88;1.08;;;;;;;15.53;44.91;100894.69;5076976;28;20797;-73
2022/05/28 04:45:51;;;;;;;10.67;1.60;;;;;;;15.58;45.63;100892.78;5084883;28;20880;-73
2022/05/28 04:48:17;;;;;;;3.63;1.40;;;;;;;15.61;45.81;100891.41;5079338;28;20404;-73
2022/05/28 04:50:42;;;;;;;4.63;1.40;;;;;;;15.62;45.86;100893.06;5075415;28;20412;-73
2022/05/28 04:53:08;;;;;;;6.57;1.40;;;;;;;15.63;46.32;100896.63;5104698;28;20732;-74
2022/05/28 04:55:33;;;;;;;5.13;1.55;;;;;;;15.67;46.86;100887.63;5063225;28;20405;-73
2022/05/28 04:57:59;;;;;;;7.77;2.00;;;;;;;15.64;46.97;100887.34;5086565;28;20394;-73
2022/05/28 05:00:26;;;;;;;6.40;1.95;;;;;;;15.63;47.52;100893.91;5092961;28;20484;-73
2022/05/28 05:02:52;;;;;;;4.10;1.25;;;;;;;15.60;47.88;100891.69;5073507;28;20415;-74
2022/05/28 05:05:18;;;;;;;6.28;1.73;;;;;;;15.57;48.17;100888.44;5076243;28;20435;-73
2022/05/28 05:07:43;;;;;;;4.32;1.50;;;;;;;15.60;48.40;100897.16;5077750;28;20398;-74
2022/05/28 05:10:10;;;;;;;6.00;1.70;;;;;;;15.63;48.15;100891.16;5077300;28;20863;-73
2022/05/28 05:12:35;;;;;;;6.60;1.92;;;;;;;15.64;47.89;100890.09;5075576;28;20781;-73
2022/05/28 05:15:00;;;;;;;7.60;1.80;;;;;;;15.60;47.82;100889.78;5097266;28;20483;-73
2022/05/28 05:17:26;;;;;;;4.77;1.50;;;;;;;15.62;47.95;100898.53;5061073;28;20396;-73
2022/05/28 05:19:52;;;;;;;9.00;1.50;;;;;;;15.64;48.02;100895.53;5055829;28;20894;-73
2022/05/28 05:22:18;;;;;;;5.38;1.63;;;;;;;15.63;47.93;100904.81;5077987;28;20415;-73
2022/05/28 05:24:43;;;;;;;7.38;2.00;;;;;;;15.63;47.98;100910.28;5073972;28;20882;-73
2022/05/28 05:27:10;;;;;;;5.47;1.30;;;;;;;15.65;48.07;100910.81;5076431;28;20432;-73
2022/05/28 05:29:35;;;;;;;4.78;1.40;;;;;;;15.66;48.12;100915.22;5074182;28;20434;-73
2022/05/28 05:32:00;;;;;;;8.57;1.60;;;;;;;15.66;48.46;100926.16;5073985;28;20798;-73
2022/05/28 05:34:26;;;;;;;5.27;1.50;;;;;;;15.66;47.94;100917.94;5078364;28;20410;-73
2022/05/28 05:36:51;;;;;;;6.67;1.43;;;;;;;15.67;47.96;100920.44;5100412;28;20456;-74
2022/05/28 05:39:17;;;;;;;6.43;1.70;;;;;;;15.63;47.59;100921.22;5077090;28;20405;-73
2022/05/28 05:41:43;;;;;;;6.33;1.20;;;;;;;15.67;47.77;100919.59;5074956;28;20419;-73
2022/05/28 05:44:09;;;;;;;6.22;1.30;;;;;;;15.68;47.77;100913.84;5089166;28;20391;-73
2022/05/28 05:46:38;;;;;;;4.17;1.10;;;;;;;15.66;47.13;100910.56;5091622;28;20396;-73
2022/05/28 05:49:04;;;;;;;6.50;1.30;;;;;;;15.69;47.03;100912.78;5084112;28;20725;-73
2022/05/28 05:51:29;;;;;;;4.27;1.20;;;;;;;15.66;46.90;100912.47;5077659;28;20418;-73
2022/05/28 05:53:55;;;;;;;5.23;1.40;;;;;;;15.64;46.82;100922.88;5084344;28;20419;-73
2022/05/28 05:56:20;;;;;;;4.70;1.23;;;;;;;15.66;46.61;100917.94;5079010;28;20415;-73
2022/05/28 05:58:45;;;;;;;4.87;1.30;;;;;;;15.67;46.63;100919.59;5087438;28;20484;-73
2022/05/28 06:01:11;;;;;;;5.05;1.38;;;;;;;15.69;46.20;100922.88;5081189;28;20415;-73
2022/05/28 06:03:38;;;;;;;3.97;1.30;;;;;;;15.70;45.84;100914.44;5085284;28;20407;-73
2022/05/28 06:06:05;;;;;;;4.70;1.48;;;;;;;15.74;45.75;100911.97;5055661;28;20767;-73
2022/05/28 06:08:31;;;;;;;2.90;1.13;;;;;;;15.77;45.65;100923.19;5088529;28;20402;-72
2022/05/28 06:10:57;;;;;;;3.47;1.20;;;;;;;15.77;45.51;100914.19;5080795;28;20413;-72
2022/05/28 06:13:22;;;;;;;5.60;1.20;;;;;;;15.80;45.73;100919.09;5087670;28;20438;-72
2022/05/28 06:15:48;;;;;;;4.30;1.35;;;;;;;15.80;45.24;100922.66;5077351;28;20861;-73
2022/05/28 06:18:15;;;;;;;3.80;1.23;;;;;;;15.79;45.06;100918.28;5082520;28;20398;-72
2022/05/28 06:20:40;;;;;;;6.45;1.20;;;;;;;15.80;45.12;100919.09;5077282;28;20460;-72
2022/05/28 06:23:06;;;;;;;3.97;0.87;;;;;;;15.81;44.95;100909.78;5073791;28;20415;-72
2022/05/28 06:25:31;;;;;;;5.20;0.98;;;;;;;15.80;44.64;100919.09;5087683;28;20392;-72
2022/05/28 06:27:57;;;;;;;6.13;1.43;;;;;;;15.77;44.29;100919.63;5089530;28;20411;-72
2022/05/28 06:30:22;;;;;;;5.63;0.88;;;;;;;15.78;44.50;100924.00;5079421;28;20412;-73
2022/05/28 06:32:48;;;;;;;4.82;1.45;;;;;;;15.84;44.39;100920.22;5072706;28;20411;-72
2022/05/28 06:35:13;;;;;;;6.60;1.43;;;;;;;15.83;44.27;100913.94;5076396;28;20469;-73
2022/05/28 06:37:38;;;;;;;5.43;0.80;;;;;;;15.84;43.77;100920.22;5066819;28;20419;-72
2022/05/28 06:40:04;;;;;;;3.35;0.90;;;;;;;15.80;43.71;100913.63;5089020;28;20390;-72
2022/05/28 06:42:30;;;;;;;5.25;1.58;;;;;;;15.86;44.12;100915.28;5088900;28;20418;-72
2022/05/28 06:44:55;;;;;;;3.27;1.33;;;;;;;15.79;43.84;100914.72;5074857;28;20474;-73
2022/05/28 06:47:21;;;;;;;5.72;1.13;;;;;;;15.76;43.57;100913.34;5078963;28;20386;-73
2022/05/28 06:51:01;;;;;;;3.13;0.77;;;;;;;15.73;43.41;100913.06;5083815;28;20441;-74
2022/05/28 06:52:32;;;;;;;4.68;1.38;;;;;;;15.73;43.75;100915.78;5083630;28;20396;-74
2022/05/28 06:54:57;;;;;;;6.77;1.40;;;;;;;15.80;43.82;100921.84;5086043;28;20487;-74
2022/05/28 06:57:22;;;;;;;3.03;0.80;;;;;;;15.80;43.60;100914.47;5086344;28;20398;-74
2022/05/28 06:59:47;;;;;;;2.93;1.00;;;;;;;15.85;43.74;100916.38;5062819;28;20740;-74
2022/05/28 07:02:13;;;;;;;6.43;1.10;;;;;;;15.90;43.52;100910.94;5083492;28;20413;-74
2022/05/28 07:04:38;;;;;;;4.53;1.10;;;;;;;15.91;43.45;100905.19;5088319;28;20897;-74
2022/05/28 07:07:05;;;;;;;5.57;1.20;;;;;;;15.92;43.19;100909.56;5089056;28;20397;-74
2022/05/28 07:09:31;;;;;;;6.15;1.30;;;;;;;15.92;43.24;100903.28;5088200;28;20873;-74
2022/05/28 07:11:56;;;;;;;4.45;1.20;;;;;;;16.00;43.12;100902.75;5086292;28;20409;-74
2022/05/28 07:14:22;;;;;;;4.10;1.07;;;;;;;16.03;42.35;100902.22;5078033;28;20445;-74
2022/05/28 07:16:47;;;;;;;4.22;0.98;;;;;;;16.02;42.38;100906.03;5066346;28;20875;-74
2022/05/28 07:19:12;;;;;;;3.10;0.90;;;;;;;16.07;42.37;100898.66;5075948;28;20909;-74
2022/05/28 07:21:37;;;;;;;3.97;0.90;;;;;;;16.14;41.67;100908.50;5060499;28;20405;-74
2022/05/28 07:24:03;;;;;;;3.85;0.82;;;;;;;16.19;42.57;100905.81;5084087;28;20466;-75
2022/05/28 07:26:28;;;;;;;4.93;1.33;;;;;;;16.19;41.81;100905.81;5076619;28;20455;-75
2022/05/28 07:28:55;;;;;;;5.77;1.20;;;;;;;16.22;42.20;100906.09;5066980;28;20489;-75
2022/05/28 07:31:21;;;;;;;3.83;1.05;;;;;;;16.26;42.31;100909.94;5053658;28;20832;-74
2022/05/28 07:33:48;;;;;;;2.28;0.98;;;;;;;16.33;42.45;100901.47;5052634;28;20406;-74
2022/05/28 07:36:19;;;;;;;5.13;1.02;;;;;;;16.38;42.85;100901.44;5054662;28;20396;-74
2022/05/28 07:38:48;;;;;;;3.10;0.90;;;;;;;16.36;42.67;100901.72;5068704;28;20420;-74
2022/05/28 07:41:16;;;;;;;3.47;1.15;;;;;;;16.36;42.48;100895.44;5056991;28;20438;-74
2022/05/28 07:43:42;;;;;;;4.75;1.20;;;;;;;16.32;42.69;100900.63;5064538;28;20414;-74
2022/05/28 07:46:23;;;;;;;6.53;1.47;;;;;;;16.34;41.84;100901.16;5056349;28;20798;-74
2022/05/28 07:48:49;;;;;;;3.55;1.08;;;;;;;16.29;41.83;100895.69;5060509;28;20389;-74
2022/05/28 07:51:14;;;;;;;3.67;1.08;;;;;;;16.30;41.71;100896.53;5053984;28;20763;-74
2022/05/28 07:53:40;;;;;;;1.57;0.70;;;;;;;16.31;41.69;100895.41;5085900;28;20394;-74
2022/05/28 07:56:06;;;;;;;4.43;1.30;;;;;;;16.31;41.77;100889.94;5065149;28;20788;-74
2022/05/28 07:58:33;;;;;;;5.07;1.20;;;;;;;16.36;41.88;100889.97;5051210;28;20398;-74
2022/05/28 08:00:58;;;;;;;3.90;1.40;;;;;;;16.30;41.33;100880.13;5063882;28;20840;-74
2022/05/28 08:03:24;;;;;;;4.67;1.40;;;;;;;16.32;41.77;100883.38;5054440;28;20433;-74
2022/05/28 08:05:51;;;;;;;3.47;0.93;;;;;;;16.39;42.38;100879.31;5070113;28;20393;-74
2022/05/28 08:08:19;;;;;;;2.50;0.80;;;;;;;16.47;42.40;100872.44;5058465;28;20405;-75
2022/05/28 08:10:44;;;;;;;3.53;0.70;;;;;;;16.55;41.94;100874.69;5061503;28;20919;-74
2022/05/28 08:13:13;;;;;;;6.07;1.30;;;;;;;16.53;41.48;100872.16;5071601;28;20387;-74
2022/05/28 08:15:42;;;;;;;5.15;0.98;;;;;;;16.57;41.59;100861.53;5060384;28;20388;-74
2022/05/28 08:18:09;;;;;;;3.10;1.02;;;;;;;16.63;41.76;100862.38;5064200;28;20788;-74
2022/05/28 08:23:19;;;;;;;2.78;1.02;;;;;;;16.73;41.80;100867.84;5058606;28;20464;-74
2022/05/28 08:25:45;;;;;;;3.90;1.40;;;;;;;16.77;41.48;100863.44;5065651;28;20877;-74
2022/05/28 08:28:12;;;;;;;2.78;0.90;;;;;;;16.85;41.70;100869.19;5091856;28;20518;-74
2022/05/28 08:30:38;;;;;;;4.30;1.25;;;;;;;16.93;41.38;100865.03;5058256;28;20456;-74
2022/05/28 08:33:06;;;;;;;5.07;1.30;;;;;;;17.02;41.73;100860.66;5071131;28;20402;-74
2022/05/28 08:35:31;;;;;;;2.30;1.27;;;;;;;17.05;41.15;100858.19;5061480;28;20523;-74
2022/05/28 08:38:01;;;;;;;5.03;1.20;;;;;;;17.13;40.88;100860.34;5062568;28;20954;-74
2022/05/28 08:40:26;;;;;;;4.85;1.02;;;;;;;17.21;40.25;100853.47;5068862;28;20388;-74
2022/05/28 08:42:52;;;;;;;3.43;1.27;;;;;;;17.31;40.62;100852.63;5055032;28;20405;-74
2022/05/28 08:45:17;;;;;;;5.85;1.63;;;;;;;17.46;40.65;100860.75;5060994;28;20747;-74
2022/05/28 08:47:47;;;;;;;5.33;0.90;;;;;;;17.53;39.95;100862.13;5068391;28;20409;-74
2022/05/28 08:50:13;;;;;;;2.28;1.13;;;;;;;17.59;40.08;100847.31;5063131;28;20488;-74
2022/05/28 08:52:54;;;;;;;5.13;1.17;;;;;;;17.79;39.66;100846.38;5070739;28;20380;-74
2022/05/28 08:55:24;;;;;;;2.33;0.73;;;;;;;17.89;38.81;100846.31;5061251;28;20404;-75
2022/05/28 08:58:08;;;;;;;4.75;1.17;;;;;;;17.95;38.76;100845.19;5062043;28;20508;-74
2022/05/28 09:00:57;;;;;;;2.05;0.90;;;;;;;18.02;39.21;100842.13;5069699;28;20384;-75
2022/05/28 09:03:32;;;;;;;4.32;0.80;;;;;;;17.97;39.66;100843.00;5052343;28;20405;-74
2022/05/28 09:06:03;;;;;;;3.80;0.90;;;;;;;17.92;38.70;100844.94;5067076;28;20431;-74
2022/05/28 09:08:36;;;;;;;3.27;0.83;;;;;;;17.95;39.19;100844.34;5057845;28;20927;-74
2022/05/28 09:11:06;;;;;;;3.97;1.23;;;;;;;17.97;39.09;100842.16;5066790;28;20417;-74
2022/05/28 09:13:43;;;;;;;4.63;1.00;;;;;;;18.05;39.59;100836.88;5065114;28;20399;-75
2022/05/28 09:16:19;;;;;;;2.92;0.88;;;;;;;18.12;39.50;100845.63;5068697;28;20449;-74
2022/05/28 09:19:06;;;;;;;3.25;1.27;;;;;;;18.32;38.80;100841.06;5086627;28;20389;-74
2022/05/28 09:21:32;;;;;;;3.37;1.03;;;;;;;18.42;38.81;100832.75;5099502;28;20426;-74
2022/05/28 09:24:03;;;;;;;1.38;0.68;;;;;;;18.56;39.10;100837.34;5071827;28;20948;-74
2022/05/28 09:26:43;;;;;;;4.00;0.93;;;;;;;18.75;38.84;100831.94;5058398;28;20407;-74
2022/05/28 09:29:26;;;;;;;4.38;1.10;;;;;;;19.02;38.26;100834.13;5062765;28;20413;-74
2022/05/28 09:32:21;;;;;;;2.65;1.05;;;;;;;19.20;38.03;100824.31;5088785;28;20872;-75
2022/05/28 09:35:14;;;;;;;1.50;0.70;;;;;;;19.41;38.12;100820.22;5074131;28;20427;-74
2022/05/28 09:38:04;;;;;;;4.65;1.10;;;;;;;19.56;37.62;100826.31;5089939;28;20389;-74
2022/05/28 09:40:44;;;;;;;1.92;1.00;;;;;;;19.70;37.10;100815.41;5080844;28;20382;-74
2022/05/28 09:43:45;;;;;;;2.30;0.80;;;;;;;19.94;37.18;100810.66;5080145;28;20973;-75
2022/05/28 09:46:36;;;;;;;3.72;1.20;;;;;;;20.07;37.25;100811.84;5079282;28;20450;-74
2022/05/28 09:49:23;;;;;;;2.88;1.17;;;;;;;19.97;36.91;100806.50;5062816;28;20487;-75
2022/05/28 09:52:10;;;;;;;4.38;0.95;;;;;;;19.73;37.20;100805.75;5087061;28;20400;-75
2022/05/28 09:54:36;;;;;;;2.23;1.10;;;;;;;19.55;37.64;100812.88;5083670;28;20474;-74
2022/05/28 09:57:21;;;;;;;4.65;0.88;;;;;;;19.34;37.65;100811.47;5079123;28;20388;-74
2022/05/28 10:00:03;;;;;;;4.13;1.10;;;;;;;19.28;37.68;100816.22;5061054;28;20410;-75
2022/05/28 10:05:53;;;;;;;3.05;0.90;;;;;;;19.17;37.81;100810.03;5076644;28;20488;-75
2022/05/28 10:08:19;;;;;;;4.60;1.20;;;;;;;19.15;38.51;100801.28;5088762;28;20432;-74
2022/05/28 10:10:56;;;;;;;5.50;1.33;;;;;;;19.13;38.57;100811.72;5079651;28;20478;-75
2022/05/28 10:13:24;;;;;;;2.83;1.10;;;;;;;19.16;38.84;100813.09;5071420;28;20407;-75
2022/05/28 10:15:55;;;;;;;3.65;1.08;;;;;;;19.26;38.36;100803.91;5079835;28;20473;-74
2022/05/28 10:18:36;;;;;;;4.40;1.20;;;;;;;20.12;37.64;100800.78;5087537;28;20445;-74
2022/05/28 10:21:10;;;;;;;4.43;1.40;;;;;;;21.75;35.72;100800.09;5058297;28;20481;-74
2022/05/28 10:23:38;;;;;;;1.60;0.83;;;;;;;22.65;33.86;100797.03;5086897;28;20548;-74
2022/05/28 10:26:04;;;;;;;2.78;0.77;;;;;;;22.78;33.17;100800.88;5098645;28;20394;-74
2022/05/28 10:28:41;;;;;;;4.57;1.10;;;;;;;22.92;33.00;100795.25;5082281;28;20496;-75
2022/05/28 10:31:16;;;;;;;4.95;1.40;;;;;;;22.62;32.46;100786.59;5084253;28;20427;-75
2022/05/28 10:33:43;;;;;;;6.28;1.10;;;;;;;22.43;32.38;100785.19;5080983;28;20515;-74
2022/05/28 10:36:13;;;;;;;3.00;1.27;;;;;;;22.36;32.58;100782.09;5084840;28;20413;-75
2022/05/28 10:38:39;;;;;;;5.72;0.95;;;;;;;22.40;33.00;100774.78;5076114;28;20471;-75
2022/05/28 10:41:26;;;;;;;3.25;0.80;;;;;;;22.97;31.39;100776.56;5084489;28;20564;-75
2022/05/28 10:43:52;;;;;;;2.30;1.00;;;;;;;23.83;31.03;100765.69;5083180;28;20861;-74
2022/05/28 10:46:31;;;;;;;3.30;1.63;;;;;;;23.98;30.42;100770.72;5076896;28;20422;-75
2022/05/28 10:49:38;;;;;;;2.42;1.20;;;;;;;24.51;30.62;100766.75;5058432;28;20396;-75
2022/05/28 10:52:29;;;;;;;2.50;1.35;;;;;;;24.48;29.33;100770.19;5078456;28;20388;-74
2022/05/28 10:55:05;;;;;;;2.55;0.70;;;;;;;25.10;27.72;100760.16;5089413;28;20450;-75
2022/05/28 10:57:52;;;;;;;1.38;0.57;;;;;;;25.14;28.07;100760.31;5079199;28;20392;-75
2022/05/28 11:00:26;;;;;;;4.10;1.08;;;;;;;24.90;29.68;100762.88;5088728;28;20438;-75
2022/05/28 11:03:15;;;;;;;4.20;1.15;;;;;;;24.55;29.87;100759.41;5068505;28;20759;-75
2022/05/28 11:06:03;;;;;;;3.28;1.15;;;;;;;24.94;29.09;100755.53;5082606;28;20753;-75
2022/05/28 11:09:01;;;;;;;2.08;0.90;;;;;;;24.81;28.97;100746.25;5075636;28;20393;-75
2022/05/28 11:11:51;;;;;;;3.78;1.00;;;;;;;24.14;28.89;100741.41;5080616;28;20387;-75
2022/05/28 11:14:33;;;;;;;3.60;1.30;;;;;;;24.06;29.16;100736.69;5086799;28;20390;-74
2022/05/28 11:16:58;;;;;;;3.50;1.43;;;;;;;23.77;29.84;100731.84;5072263;28;20480;-75
2022/05/28 11:19:42;;;;;;;3.43;1.17;;;;;;;23.50;30.67;100731.34;5082613;28;20930;-75
2022/05/28 11:22:23;;;;;;;1.83;0.80;;;;;;;24.16;30.58;100721.72;5080207;28;20502;-74
2022/05/28 11:24:55;;;;;;;5.17;1.27;;;;;;;24.67;28.82;100734.56;5097083;28;20407;-74
2022/05/28 11:27:21;;;;;;;2.88;1.17;;;;;;;25.03;28.12;100712.72;5082719;28;20474;-74
2022/05/28 11:29:57;;;;;;;2.55;1.00;;;;;;;25.43;28.33;100720.63;5103568;28;20557;-74
2022/05/28 11:32:27;;;;;;;3.22;0.90;;;;;;;25.60;27.86;100717.75;5072465;28;20423;-75
2022/05/28 11:35:02;;;;;;;2.90;0.80;;;;;;;25.64;27.15;100707.59;5080533;28;20405;-75
2022/05/28 11:37:42;;;;;;;3.08;1.10;;;;;;;26.20;24.60;100703.34;5087171;28;20390;-75
2022/05/28 11:40:52;;;;;;;3.35;0.80;;;;;;;26.42;25.26;100702.91;5074808;28;20860;-75
2022/05/28 11:43:26;;;;;;;2.50;0.80;;;;;;;26.32;26.93;100697.81;5071899;28;20437;-74
2022/05/28 11:46:04;;;;;;;4.90;0.90;;;;;;;26.55;26.32;100698.19;5074873;28;20475;-75